sensor_id;sensor_type;location;lat;lon;timestamp;pressure;altitude;pressure_sealevel;temperature;humidity
14293;BME280;62290;59.420;17.842;2023-04-28T00:00:03;100816.97;;;20.50;28.15
14293;BME280;62290;59.420;17.842;2023-04-28T00:02:32;100812.59;;;20.49;28.01
14293;BME280;62290;59.420;17.842;2023-04-28T00:05:01;100809.91;;;20.49;28.34
14293;BME280;62290;59.420;17.842;2023-04-28T00:07:29;100791.31;;;20.35;28.17
14293;BME280;62290;59.420;17.842;2023-04-28T00:09:57;100798.38;;;20.36;28.36
14293;BME280;62290;59.420;17.842;2023-04-28T00:12:25;100811.31;;;20.42;28.29
14293;BME280;62290;59.420;17.842;2023-04-28T00:14:53;100818.25;;;20.44;28.25
14293;BME280;62290;59.420;17.842;2023-04-28T00:17:22;100818.16;;;20.46;28.24
14293;BME280;62290;59.420;17.842;2023-04-28T00:19:50;100797.75;;;20.32;28.14
14293;BME280;62290;59.420;17.842;2023-04-28T00:22:19;100821.91;;;20.43;28.50
14293;BME280;62290;59.420;17.842;2023-04-28T00:24:47;100824.59;;;20.43;28.46
14293;BME280;62290;59.420;17.842;2023-04-28T00:27:15;100827.38;;;20.42;28.29
14293;BME280;62290;59.420;17.842;2023-04-28T00:29:43;100832.97;;;20.39;28.29
14293;BME280;62290;59.420;17.842;2023-04-28T00:32:11;100824.94;;;20.39;28.33
14293;BME280;62290;59.420;17.842;2023-04-28T00:34:41;100830.38;;;20.37;28.49
14293;BME280;62290;59.420;17.842;2023-04-28T00:37:09;100828.56;;;20.38;28.31
14293;BME280;62290;59.420;17.842;2023-04-28T00:39:37;100830.50;;;20.36;28.38
14293;BME280;62290;59.420;17.842;2023-04-28T00:42:07;100825.38;;;20.33;28.53
14293;BME280;62290;59.420;17.842;2023-04-28T00:44:35;100837.75;;;20.33;28.65
14293;BME280;62290;59.420;17.842;2023-04-28T00:47:03;100827.06;;;20.33;28.58
14293;BME280;62290;59.420;17.842;2023-04-28T00:49:31;100837.03;;;20.31;28.53
14293;BME280;62290;59.420;17.842;2023-04-28T00:52:03;100845.91;;;20.32;28.46
14293;BME280;62290;59.420;17.842;2023-04-28T00:54:32;100847.84;;;20.30;28.38
14293;BME280;62290;59.420;17.842;2023-04-28T00:57:01;100816.28;;;20.10;28.35
14293;BME280;62290;59.420;17.842;2023-04-28T00:59:30;100830.50;;;20.23;28.48
14293;BME280;62290;59.420;17.842;2023-04-28T01:01:58;100832.63;;;20.18;28.61
14293;BME280;62290;59.420;17.842;2023-04-28T01:04:28;100838.22;;;20.27;28.42
14293;BME280;62290;59.420;17.842;2023-04-28T01:06:57;100851.59;;;20.27;28.46
14293;BME280;62290;59.420;17.842;2023-04-28T01:09:28;100850.88;;;20.25;28.59
14293;BME280;62290;59.420;17.842;2023-04-28T01:11:57;100846.47;;;20.24;28.46
14293;BME280;62290;59.420;17.842;2023-04-28T01:14:34;100849.22;;;20.23;28.20
14293;BME280;62290;59.420;17.842;2023-04-28T01:17:02;100848.38;;;20.22;28.43
14293;BME280;62290;59.420;17.842;2023-04-28T01:19:31;100859.06;;;20.22;28.35
14293;BME280;62290;59.420;17.842;2023-04-28T01:22:01;100844.19;;;20.18;28.51
14293;BME280;62290;59.420;17.842;2023-04-28T01:24:31;100857.34;;;20.21;28.33
14293;BME280;62290;59.420;17.842;2023-04-28T01:27:03;100855.75;;;20.19;28.45
14293;BME280;62290;59.420;17.842;2023-04-28T01:29:31;100859.28;;;20.19;28.30
14293;BME280;62290;59.420;17.842;2023-04-28T01:31:59;100840.78;;;20.04;28.40
14293;BME280;62290;59.420;17.842;2023-04-28T01:34:27;100858.53;;;20.17;28.34
14293;BME280;62290;59.420;17.842;2023-04-28T01:36:56;100856.94;;;20.15;28.24
14293;BME280;62290;59.420;17.842;2023-04-28T01:39:24;100865.06;;;20.13;28.39
14293;BME280;62290;59.420;17.842;2023-04-28T01:41:53;100858.84;;;20.13;28.58
14293;BME280;62290;59.420;17.842;2023-04-28T01:44:21;100865.19;;;20.12;28.50
14293;BME280;62290;59.420;17.842;2023-04-28T01:46:49;100864.31;;;20.11;28.40
14293;BME280;62290;59.420;17.842;2023-04-28T01:49:20;100859.91;;;20.10;28.54
14293;BME280;62290;59.420;17.842;2023-04-28T01:51:49;100858.09;;;20.11;28.50
14293;BME280;62290;59.420;17.842;2023-04-28T01:54:17;100860.03;;;20.09;28.33
14293;BME280;62290;59.420;17.842;2023-04-28T01:56:45;100853.22;;;20.05;28.44
14293;BME280;62290;59.420;17.842;2023-04-28T01:59:16;100860.16;;;20.07;28.31
14293;BME280;62290;59.420;17.842;2023-04-28T02:01:46;100851.34;;;20.05;28.32
14293;BME280;62290;59.420;17.842;2023-04-28T02:04:14;100862.06;;;20.05;28.38
14293;BME280;62290;59.420;17.842;2023-04-28T02:06:42;100834.56;;;19.91;28.57
14293;BME280;62290;59.420;17.842;2023-04-28T02:09:11;100862.06;;;20.05;28.53
14293;BME280;62290;59.420;17.842;2023-04-28T02:11:39;100860.25;;;20.06;28.42
14293;BME280;62290;59.420;17.842;2023-04-28T02:14:07;100867.41;;;20.05;28.41
14293;BME280;62290;59.420;17.842;2023-04-28T02:16:37;100869.25;;;20.05;28.55
14293;BME280;62290;59.420;17.842;2023-04-28T02:19:05;100860.38;;;20.04;28.54
14293;BME280;62290;59.420;17.842;2023-04-28T02:21:33;100875.56;;;20.04;28.62
14293;BME280;62290;59.420;17.842;2023-04-28T02:24:01;100866.88;;;20.00;28.38
14293;BME280;62290;59.420;17.842;2023-04-28T02:26:30;100875.66;;;20.02;28.54
14293;BME280;62290;59.420;17.842;2023-04-28T02:28:58;100877.38;;;20.03;28.47
14293;BME280;62290;59.420;17.842;2023-04-28T02:31:30;100881.97;;;20.01;28.41
14293;BME280;62290;59.420;17.842;2023-04-28T02:34:00;100887.22;;;20.03;28.48
14293;BME280;62290;59.420;17.842;2023-04-28T02:36:28;100890.00;;;20.01;28.42
14293;BME280;62290;59.420;17.842;2023-04-28T02:38:57;100884.00;;;19.98;28.50
14293;BME280;62290;59.420;17.842;2023-04-28T02:41:26;100883.78;;;20.01;28.48
14293;BME280;62290;59.420;17.842;2023-04-28T02:43:55;100890.97;;;20.00;28.56
14293;BME280;62290;59.420;17.842;2023-04-28T02:46:23;100884.75;;;20.00;28.38
14293;BME280;62290;59.420;17.842;2023-04-28T02:48:51;100875.66;;;19.90;28.27
14293;BME280;62290;59.420;17.842;2023-04-28T02:51:21;100898.97;;;20.00;28.40
14293;BME280;62290;59.420;17.842;2023-04-28T02:53:49;100899.09;;;19.99;28.48
14293;BME280;62290;59.420;17.842;2023-04-28T02:56:17;100895.56;;;19.98;28.45
14293;BME280;62290;59.420;17.842;2023-04-28T02:58:45;100898.25;;;19.98;28.54
14293;BME280;62290;59.420;17.842;2023-04-28T03:01:13;100887.13;;;19.92;28.55
14293;BME280;62290;59.420;17.842;2023-04-28T03:03:42;100891.06;;;19.99;28.60
14293;BME280;62290;59.420;17.842;2023-04-28T03:06:10;100863.13;;;19.78;28.27
14293;BME280;62290;59.420;17.842;2023-04-28T03:08:40;100896.50;;;19.97;28.54
14293;BME280;62290;59.420;17.842;2023-04-28T03:11:08;100895.56;;;19.98;28.69
14293;BME280;62290;59.420;17.842;2023-04-28T03:13:37;100902.63;;;19.99;28.48
14293;BME280;62290;59.420;17.842;2023-04-28T03:16:05;100912.47;;;19.99;28.52
14293;BME280;62290;59.420;17.842;2023-04-28T03:18:34;100902.72;;;19.98;28.60
14293;BME280;62290;59.420;17.842;2023-04-28T03:21:02;100907.00;;;20.00;28.56
14293;BME280;62290;59.420;17.842;2023-04-28T03:23:31;100909.69;;;20.00;28.60
14293;BME280;62290;59.420;17.842;2023-04-28T03:26:00;100910.44;;;20.02;28.41
14293;BME280;62290;59.420;17.842;2023-04-28T03:28:28;100905.19;;;20.01;28.52
14293;BME280;62290;59.420;17.842;2023-04-28T03:30:58;100914.09;;;20.01;28.40
14293;BME280;62290;59.420;17.842;2023-04-28T03:33:26;100918.25;;;20.05;28.43
14293;BME280;62290;59.420;17.842;2023-04-28T03:35:54;100911.28;;;20.03;28.51
14293;BME280;62290;59.420;17.842;2023-04-28T03:38:23;100913.75;;;20.06;28.36
14293;BME280;62290;59.420;17.842;2023-04-28T03:40:51;100920.91;;;20.05;28.25
14293;BME280;62290;59.420;17.842;2023-04-28T03:43:38;100923.59;;;20.05;28.40
14293;BME280;62290;59.420;17.842;2023-04-28T03:46:13;100918.25;;;20.05;28.57
14293;BME280;62290;59.420;17.842;2023-04-28T03:48:41;100909.06;;;19.97;28.48
14293;BME280;62290;59.420;17.842;2023-04-28T03:51:09;100929.72;;;20.07;28.57
14293;BME280;62290;59.420;17.842;2023-04-28T03:53:37;100929.72;;;20.07;28.39
14293;BME280;62290;59.420;17.842;2023-04-28T03:56:06;100928.75;;;20.08;28.58
14293;BME280;62290;59.420;17.842;2023-04-28T03:58:34;100938.69;;;20.06;28.71
14293;BME280;62290;59.420;17.842;2023-04-28T04:01:03;100927.25;;;20.04;28.65
14293;BME280;62290;59.420;17.842;2023-04-28T04:03:31;100928.94;;;20.05;28.57
14293;BME280;62290;59.420;17.842;2023-04-28T04:06:00;100928.13;;;20.05;28.40
14293;BME280;62290;59.420;17.842;2023-04-28T04:08:29;100928.31;;;20.02;28.69
14293;BME280;62290;59.420;17.842;2023-04-28T04:10:59;100939.78;;;20.04;28.43
14293;BME280;62290;59.420;17.842;2023-04-28T04:13:27;100934.50;;;20.02;28.46
14293;BME280;62290;59.420;17.842;2023-04-28T04:15:55;100941.56;;;20.03;28.67
14293;BME280;62290;59.420;17.842;2023-04-28T04:18:25;100930.22;;;20.00;28.60
14293;BME280;62290;59.420;17.842;2023-04-28T04:21:22;100944.25;;;20.03;28.67
14293;BME280;62290;59.420;17.842;2023-04-28T04:23:51;100945.97;;;20.04;28.48
14293;BME280;62290;59.420;17.842;2023-04-28T04:26:20;100946.84;;;20.05;28.58
14293;BME280;62290;59.420;17.842;2023-04-28T04:28:50;100947.69;;;20.05;28.60
14293;BME280;62290;59.420;17.842;2023-04-28T04:31:18;100949.53;;;20.05;28.74
14293;BME280;62290;59.420;17.842;2023-04-28T04:33:47;100953.03;;;20.05;28.58
14293;BME280;62290;59.420;17.842;2023-04-28T04:36:17;100955.69;;;20.05;28.52
14293;BME280;62290;59.420;17.842;2023-04-28T04:38:46;100955.69;;;20.05;28.66
14293;BME280;62290;59.420;17.842;2023-04-28T04:41:17;100951.34;;;20.04;28.53
14293;BME280;62290;59.420;17.842;2023-04-28T04:43:47;100953.81;;;20.07;28.64
14293;BME280;62290;59.420;17.842;2023-04-28T04:46:16;100963.53;;;20.08;28.64
14293;BME280;62290;59.420;17.842;2023-04-28T04:48:44;100952.06;;;20.06;28.66
14293;BME280;62290;59.420;17.842;2023-04-28T04:51:14;100966.09;;;20.10;28.43
14293;BME280;62290;59.420;17.842;2023-04-28T04:53:42;100956.47;;;20.07;28.72
14293;BME280;62290;59.420;17.842;2023-04-28T04:56:10;100963.31;;;20.11;28.59
14293;BME280;62290;59.420;17.842;2023-04-28T04:58:41;100966.00;;;20.11;28.65
14293;BME280;62290;59.420;17.842;2023-04-28T05:01:35;100974.97;;;20.10;28.55
14293;BME280;62290;59.420;17.842;2023-04-28T05:04:04;100969.63;;;20.10;28.47
14293;BME280;62290;59.420;17.842;2023-04-28T05:06:33;100975.84;;;20.11;28.66
14293;BME280;62290;59.420;17.842;2023-04-28T05:09:01;100977.66;;;20.10;28.44
14293;BME280;62290;59.420;17.842;2023-04-28T05:11:31;100971.56;;;20.08;28.50
14293;BME280;62290;59.420;17.842;2023-04-28T05:13:59;100982.91;;;20.12;28.51
14293;BME280;62290;59.420;17.842;2023-04-28T05:16:27;100982.38;;;20.07;28.58
14293;BME280;62290;59.420;17.842;2023-04-28T05:19:02;100980.31;;;20.10;28.62
14293;BME280;62290;59.420;17.842;2023-04-28T05:21:30;100977.75;;;20.09;28.66
14293;BME280;62290;59.420;17.842;2023-04-28T05:23:59;100977.75;;;20.09;28.66
14293;BME280;62290;59.420;17.842;2023-04-28T05:26:28;100978.63;;;20.09;28.44
14293;BME280;62290;59.420;17.842;2023-04-28T05:29:02;100982.25;;;20.08;28.51
14293;BME280;62290;59.420;17.842;2023-04-28T05:31:30;100982.16;;;20.10;28.43
14293;BME280;62290;59.420;17.842;2023-04-28T05:33:58;100979.91;;;20.04;28.65
14293;BME280;62290;59.420;17.842;2023-04-28T05:36:26;100987.59;;;20.08;28.53
14293;BME280;62290;59.420;17.842;2023-04-28T05:38:54;100986.84;;;20.06;28.74
14293;BME280;62290;59.420;17.842;2023-04-28T05:41:24;100995.53;;;20.10;28.35
14293;BME280;62290;59.420;17.842;2023-04-28T05:43:53;100984.84;;;20.10;28.64
14293;BME280;62290;59.420;17.842;2023-04-28T05:46:22;100989.22;;;20.11;28.53
14293;BME280;62290;59.420;17.842;2023-04-28T05:48:58;100999.81;;;20.12;28.44
14293;BME280;62290;59.420;17.842;2023-04-28T05:51:31;100997.91;;;20.14;28.39
14293;BME280;62290;59.420;17.842;2023-04-28T05:54:00;100996.84;;;20.17;28.27
14293;BME280;62290;59.420;17.842;2023-04-28T05:56:32;100952.06;;;19.94;28.61
14293;BME280;62290;59.420;17.842;2023-04-28T05:59:01;100990.41;;;20.19;28.26
14293;BME280;62290;59.420;17.842;2023-04-28T06:01:30;100990.22;;;20.22;28.53
14293;BME280;62290;59.420;17.842;2023-04-28T06:03:58;100998.88;;;20.26;28.22
14293;BME280;62290;59.420;17.842;2023-04-28T06:06:27;100997.63;;;20.31;28.30
14293;BME280;62290;59.420;17.842;2023-04-28T06:08:55;100999.13;;;20.36;28.40
14293;BME280;62290;59.420;17.842;2023-04-28T06:11:24;101010.59;;;20.38;28.11
14293;BME280;62290;59.420;17.842;2023-04-28T06:13:54;101012.94;;;20.42;28.38
14293;BME280;62290;59.420;17.842;2023-04-28T06:16:24;101017.44;;;20.42;28.14
14293;BME280;62290;59.420;17.842;2023-04-28T06:18:52;101019.16;;;20.43;28.25
14293;BME280;62290;59.420;17.842;2023-04-28T06:21:20;101021.84;;;20.43;28.39
14293;BME280;62290;59.420;17.842;2023-04-28T06:23:50;101019.16;;;20.43;28.27
14293;BME280;62290;59.420;17.842;2023-04-28T06:26:18;101029.88;;;20.43;28.30
14293;BME280;62290;59.420;17.842;2023-04-28T06:28:46;101033.50;;;20.42;28.27
14293;BME280;62290;59.420;17.842;2023-04-28T06:31:16;101043.25;;;20.43;28.26
14293;BME280;62290;59.420;17.842;2023-04-28T06:33:44;101045.19;;;20.41;28.33
14293;BME280;62290;59.420;17.842;2023-04-28T06:36:12;101052.56;;;20.37;28.22
14293;BME280;62290;59.420;17.842;2023-04-28T06:38:42;101047.13;;;20.39;28.18
14293;BME280;62290;59.420;17.842;2023-04-28T06:41:10;101043.66;;;20.37;28.22
14293;BME280;62290;59.420;17.842;2023-04-28T06:43:40;101056.22;;;20.36;28.31
14293;BME280;62290;59.420;17.842;2023-04-28T06:46:13;101058.22;;;20.33;28.14
14293;BME280;62290;59.420;17.842;2023-04-28T06:48:43;101062.41;;;20.37;28.30
14293;BME280;62290;59.420;17.842;2023-04-28T06:51:11;101076.84;;;20.34;28.36
14293;BME280;62290;59.420;17.842;2023-04-28T06:53:39;101066.25;;;20.33;28.28
14293;BME280;62290;59.420;17.842;2023-04-28T06:56:07;101069.81;;;20.33;28.05
14293;BME280;62290;59.420;17.842;2023-04-28T06:58:37;101054.16;;;20.27;28.18
14293;BME280;62290;59.420;17.842;2023-04-28T07:01:05;101053.19;;;20.28;28.68
14293;BME280;62290;59.420;17.842;2023-04-28T07:03:33;101058.03;;;20.36;28.44
14293;BME280;62290;59.420;17.842;2023-04-28T07:06:04;101058.66;;;20.39;28.79
14293;BME280;62290;59.420;17.842;2023-04-28T07:08:33;101058.66;;;20.39;28.51
14293;BME280;62290;59.420;17.842;2023-04-28T07:11:02;101069.16;;;20.42;28.66
14293;BME280;62290;59.420;17.842;2023-04-28T07:13:30;101075.25;;;20.44;29.30
14293;BME280;62290;59.420;17.842;2023-04-28T07:15:58;101074.09;;;20.48;30.45
14293;BME280;62290;59.420;17.842;2023-04-28T07:18:27;101073.78;;;20.53;31.01
14293;BME280;62290;59.420;17.842;2023-04-28T07:20:55;101074.44;;;20.56;32.00
14293;BME280;62290;59.420;17.842;2023-04-28T07:23:24;101076.66;;;20.62;32.29
14293;BME280;62290;59.420;17.842;2023-04-28T07:25:53;101076.78;;;20.61;32.41
14293;BME280;62290;59.420;17.842;2023-04-28T07:28:21;101073.03;;;20.63;32.45
14293;BME280;62290;59.420;17.842;2023-04-28T07:30:49;101080.13;;;20.64;32.29
14293;BME280;62290;59.420;17.842;2023-04-28T07:33:17;101087.94;;;20.67;32.11
14293;BME280;62290;59.420;17.842;2023-04-28T07:35:45;101086.09;;;20.68;31.65
14293;BME280;62290;59.420;17.842;2023-04-28T07:38:15;101090.63;;;20.67;31.35
14293;BME280;62290;59.420;17.842;2023-04-28T07:40:45;101086.00;;;20.69;31.15
14293;BME280;62290;59.420;17.842;2023-04-28T07:43:13;101100.34;;;20.68;32.17
14293;BME280;62290;59.420;17.842;2023-04-28T07:45:41;101099.28;;;20.71;32.41
14293;BME280;62290;59.420;17.842;2023-04-28T07:48:11;101095.53;;;20.73;32.87
14293;BME280;62290;59.420;17.842;2023-04-28T07:50:39;101085.34;;;20.66;32.94
14293;BME280;62290;59.420;17.842;2023-04-28T07:53:07;101099.75;;;20.77;32.62
14293;BME280;62290;59.420;17.842;2023-04-28T07:55:35;101113.00;;;20.79;32.57
14293;BME280;62290;59.420;17.842;2023-04-28T07:58:05;101114.75;;;20.80;32.50
14293;BME280;62290;59.420;17.842;2023-04-28T08:00:33;101091.78;;;20.63;32.43
14293;BME280;62290;59.420;17.842;2023-04-28T08:03:02;101117.09;;;20.72;32.32
14293;BME280;62290;59.420;17.842;2023-04-28T08:05:30;101122.31;;;20.73;32.38
14293;BME280;62290;59.420;17.842;2023-04-28T08:07:58;101120.09;;;20.80;32.28
14293;BME280;62290;59.420;17.842;2023-04-28T08:10:27;101123.19;;;20.86;32.35
14293;BME280;62290;59.420;17.842;2023-04-28T08:12:55;101135.09;;;20.95;32.01
14293;BME280;62290;59.420;17.842;2023-04-28T08:15:24;101129.94;;;21.05;31.46
14293;BME280;62290;59.420;17.842;2023-04-28T08:17:53;101125.94;;;21.12;31.09
14293;BME280;62290;59.420;17.842;2023-04-28T08:20:21;101124.41;;;21.20;31.16
14293;BME280;62290;59.420;17.842;2023-04-28T08:22:50;101128.25;;;21.29;30.91
14293;BME280;62290;59.420;17.842;2023-04-28T08:25:18;101136.50;;;21.38;30.96
14293;BME280;62290;59.420;17.842;2023-04-28T08:27:46;101130.38;;;21.49;32.36
14293;BME280;62290;59.420;17.842;2023-04-28T08:30:14;101099.69;;;21.40;32.78
14293;BME280;62290;59.420;17.842;2023-04-28T08:32:44;101130.53;;;21.71;32.68
14293;BME280;62290;59.420;17.842;2023-04-28T08:35:12;101123.00;;;21.76;32.53
14293;BME280;62290;59.420;17.842;2023-04-28T08:37:41;101122.03;;;21.77;32.56
14293;BME280;62290;59.420;17.842;2023-04-28T08:40:09;101132.13;;;21.86;32.13
14293;BME280;62290;59.420;17.842;2023-04-28T08:42:37;101135.47;;;21.90;32.05
14293;BME280;62290;59.420;17.842;2023-04-28T08:45:06;101088.59;;;21.70;32.83
14293;BME280;62290;59.420;17.842;2023-04-28T08:47:36;101129.63;;;21.96;32.99
14293;BME280;62290;59.420;17.842;2023-04-28T08:50:07;101122.88;;;21.90;32.97
14293;BME280;62290;59.420;17.842;2023-04-28T08:52:35;101138.31;;;21.99;32.75
14293;BME280;62290;59.420;17.842;2023-04-28T08:55:06;101144.63;;;21.98;32.42
14293;BME280;62290;59.420;17.842;2023-04-28T08:57:38;101145.06;;;22.05;32.49
14293;BME280;62290;59.420;17.842;2023-04-28T09:00:08;101133.34;;;22.06;32.22
14293;BME280;62290;59.420;17.842;2023-04-28T09:02:36;101131.13;;;22.00;31.72
14293;BME280;62290;59.420;17.842;2023-04-28T09:05:10;101146.31;;;22.12;31.03
14293;BME280;62290;59.420;17.842;2023-04-28T09:07:39;101138.03;;;22.15;30.91
14293;BME280;62290;59.420;17.842;2023-04-28T09:10:18;101145.88;;;22.18;30.59
14293;BME280;62290;59.420;17.842;2023-04-28T09:12:47;101136.81;;;22.19;30.37
14293;BME280;62290;59.420;17.842;2023-04-28T09:15:29;101146.47;;;22.22;29.89
14293;BME280;62290;59.420;17.842;2023-04-28T09:18:00;101139.28;;;22.22;29.83
14293;BME280;62290;59.420;17.842;2023-04-28T09:20:31;101142.81;;;22.23;29.87
14293;BME280;62290;59.420;17.842;2023-04-28T09:23:12;101145.38;;;22.24;29.26
14293;BME280;62290;59.420;17.842;2023-04-28T09:25:54;101134.25;;;22.18;29.49
14293;BME280;62290;59.420;17.842;2023-04-28T09:28:23;101143.06;;;22.20;29.35
14293;BME280;62290;59.420;17.842;2023-04-28T09:30:51;101144.88;;;22.19;29.07
14293;BME280;62290;59.420;17.842;2023-04-28T09:33:19;101150.38;;;22.18;28.77
14293;BME280;62290;59.420;17.842;2023-04-28T09:35:49;101133.75;;;22.12;29.03
14293;BME280;62290;59.420;17.842;2023-04-28T09:38:19;101140.72;;;22.15;28.49
14293;BME280;62290;59.420;17.842;2023-04-28T09:40:52;101146.94;;;22.16;28.53
14293;BME280;62290;59.420;17.842;2023-04-28T09:43:27;101142.41;;;22.16;28.66
14293;BME280;62290;59.420;17.842;2023-04-28T09:45:58;101140.59;;;22.17;28.61
14293;BME280;62290;59.420;17.842;2023-04-28T09:48:30;101119.09;;;22.05;28.62
14293;BME280;62290;59.420;17.842;2023-04-28T09:51:02;101138.66;;;22.19;28.48
14293;BME280;62290;59.420;17.842;2023-04-28T09:53:32;101132.75;;;22.13;28.39
14293;BME280;62290;59.420;17.842;2023-04-28T09:56:01;101145.88;;;22.18;28.30
14293;BME280;62290;59.420;17.842;2023-04-28T09:58:33;101148.41;;;22.20;28.01
14293;BME280;62290;59.420;17.842;2023-04-28T10:01:02;101147.56;;;22.19;28.29
14293;BME280;62290;59.420;17.842;2023-04-28T10:03:34;101141.44;;;22.17;27.71
14293;BME280;62290;59.420;17.842;2023-04-28T10:06:04;101141.44;;;22.17;27.67
14293;BME280;62290;59.420;17.842;2023-04-28T10:08:34;101145.00;;;22.18;27.54
14293;BME280;62290;59.420;17.842;2023-04-28T10:11:02;101144.13;;;22.17;27.46
14293;BME280;62290;59.420;17.842;2023-04-28T10:13:30;101138.78;;;22.17;27.74
14293;BME280;62290;59.420;17.842;2023-04-28T10:15:59;101138.03;;;22.15;27.36
14293;BME280;62290;59.420;17.842;2023-04-28T10:18:28;101136.00;;;22.19;27.43
14293;BME280;62290;59.420;17.842;2023-04-28T10:20:59;101131.34;;;22.21;27.30
14293;BME280;62290;59.420;17.842;2023-04-28T10:23:58;101135.72;;;22.22;27.12
14293;BME280;62290;59.420;17.842;2023-04-28T10:29:36;101133.31;;;22.19;26.94
14293;BME280;62290;59.420;17.842;2023-04-28T10:32:20;101122.56;;;22.19;26.62
14293;BME280;62290;59.420;17.842;2023-04-28T10:34:49;101116.44;;;22.17;27.03
14293;BME280;62290;59.420;17.842;2023-04-28T10:37:17;101131.56;;;22.18;26.71
14293;BME280;62290;59.420;17.842;2023-04-28T10:42:53;101127.94;;;22.19;26.79
14293;BME280;62290;59.420;17.842;2023-04-28T10:48:54;101127.06;;;22.18;27.30
14293;BME280;62290;59.420;17.842;2023-04-28T10:51:29;101127.81;;;22.20;27.23
14293;BME280;62290;59.420;17.842;2023-04-28T10:54:08;101128.53;;;22.22;27.60
14293;BME280;62290;59.420;17.842;2023-04-28T10:56:37;101123.06;;;22.24;27.26
14293;BME280;62290;59.420;17.842;2023-04-28T10:59:26;101123.69;;;22.27;27.72
14293;BME280;62290;59.420;17.842;2023-04-28T11:02:39;101129.03;;;22.27;27.42
14293;BME280;62290;59.420;17.842;2023-04-28T11:05:14;101094.56;;;22.10;27.21
14293;BME280;62290;59.420;17.842;2023-04-28T11:11:14;101130.41;;;22.33;26.96
14293;BME280;62290;59.420;17.842;2023-04-28T11:13:43;101134.69;;;22.35;27.15
14293;BME280;62290;59.420;17.842;2023-04-28T11:16:22;101133.63;;;22.38;26.77
14293;BME280;62290;59.420;17.842;2023-04-28T11:18:56;101133.75;;;22.36;26.65
14293;BME280;62290;59.420;17.842;2023-04-28T11:21:25;101126.41;;;22.38;26.26
14293;BME280;62290;59.420;17.842;2023-04-28T11:23:56;101132.44;;;22.42;26.21
14293;BME280;62290;59.420;17.842;2023-04-28T11:26:24;101129.34;;;22.35;26.14
14293;BME280;62290;59.420;17.842;2023-04-28T11:28:53;101117.00;;;22.33;25.84
14293;BME280;62290;59.420;17.842;2023-04-28T11:31:24;101120.63;;;22.32;25.59
14293;BME280;62290;59.420;17.842;2023-04-28T11:33:58;101139.25;;;22.46;25.61
14293;BME280;62290;59.420;17.842;2023-04-28T11:36:31;101139.25;;;22.46;25.52
14293;BME280;62290;59.420;17.842;2023-04-28T11:39:01;101142.81;;;22.46;25.49
14293;BME280;62290;59.420;17.842;2023-04-28T11:41:33;101125.69;;;22.36;25.27
14293;BME280;62290;59.420;17.842;2023-04-28T11:44:09;101150.63;;;22.49;25.42
14293;BME280;62290;59.420;17.842;2023-04-28T11:46:45;101156.88;;;22.50;25.14
14293;BME280;62290;59.420;17.842;2023-04-28T11:49:17;101148.06;;;22.48;25.39
14293;BME280;62290;59.420;17.842;2023-04-28T11:51:46;101159.78;;;22.47;25.24
14293;BME280;62290;59.420;17.842;2023-04-28T11:54:19;101156.09;;;22.48;26.04
14293;BME280;62290;59.420;17.842;2023-04-28T11:56:48;101152.59;;;22.47;26.71
14293;BME280;62290;59.420;17.842;2023-04-28T11:59:16;101158.69;;;22.49;27.01
14293;BME280;62290;59.420;17.842;2023-04-28T12:01:48;101144.41;;;22.49;27.02
14293;BME280;62290;59.420;17.842;2023-04-28T12:04:28;101148.81;;;22.50;26.64
14293;BME280;62290;59.420;17.842;2023-04-28T12:06:58;101149.91;;;22.47;26.48
14293;BME280;62290;59.420;17.842;2023-04-28T12:09:27;101148.19;;;22.46;26.51
14293;BME280;62290;59.420;17.842;2023-04-28T12:11:56;101148.41;;;22.43;26.20
14293;BME280;62290;59.420;17.842;2023-04-28T12:14:25;101154.50;;;22.45;26.24
14293;BME280;62290;59.420;17.842;2023-04-28T12:16:54;101127.88;;;22.42;26.64
14293;BME280;62290;59.420;17.842;2023-04-28T12:19:23;101142.69;;;22.48;26.21
14293;BME280;62290;59.420;17.842;2023-04-28T12:21:59;101143.53;;;22.48;26.07
14293;BME280;62290;59.420;17.842;2023-04-28T12:24:28;101140.75;;;22.50;26.20
14293;BME280;62290;59.420;17.842;2023-04-28T12:27:14;101141.59;;;22.50;26.16
14293;BME280;62290;59.420;17.842;2023-04-28T12:29:43;101147.81;;;22.51;25.99
14293;BME280;62290;59.420;17.842;2023-04-28T12:32:16;101116.03;;;22.34;26.05
14293;BME280;62290;59.420;17.842;2023-04-28T12:34:46;101141.34;;;22.53;25.97
14293;BME280;62290;59.420;17.842;2023-04-28T12:37:16;101149.19;;;22.56;25.78
14293;BME280;62290;59.420;17.842;2023-04-28T12:39:44;101149.91;;;22.58;25.77
14293;BME280;62290;59.420;17.842;2023-04-28T12:42:12;101147.25;;;22.58;25.96
14293;BME280;62290;59.420;17.842;2023-04-28T12:44:40;101150.66;;;22.60;25.67
14293;BME280;62290;59.420;17.842;2023-04-28T12:47:08;101149.69;;;22.61;25.74
14293;BME280;62290;59.420;17.842;2023-04-28T12:49:39;101143.25;;;22.64;25.76
14293;BME280;62290;59.420;17.842;2023-04-28T12:52:07;101146.81;;;22.64;25.70
14293;BME280;62290;59.420;17.842;2023-04-28T12:54:35;101135.09;;;22.65;25.44
14293;BME280;62290;59.420;17.842;2023-04-28T12:57:04;101139.38;;;22.68;26.32
14293;BME280;62290;59.420;17.842;2023-04-28T12:59:32;101134.63;;;22.71;27.59
14293;BME280;62290;59.420;17.842;2023-04-28T13:02:00;101135.34;;;22.73;27.91
14293;BME280;62290;59.420;17.842;2023-04-28T13:04:29;101129.75;;;22.77;28.17
14293;BME280;62290;59.420;17.842;2023-04-28T13:06:59;101129.63;;;22.78;28.01